createdAt,value
2023-01-26T00:01:44.716Z,16.67
2023-01-26T00:04:12.489Z,16.60
2023-01-26T00:06:40.325Z,18.20
2023-01-26T00:09:08.122Z,15.50
2023-01-26T00:11:35.796Z,15.40
2023-01-26T00:14:03.773Z,15.83
2023-01-26T00:16:31.681Z,15.67
2023-01-26T00:19:04.683Z,14.73
2023-01-26T00:21:35.816Z,14.07
2023-01-26T00:24:07.697Z,14.33
2023-01-26T00:26:38.999Z,15.60
2023-01-26T00:29:09.521Z,15.13
2023-01-26T00:31:42.523Z,14.20
2023-01-26T00:34:30.581Z,14.60
2023-01-26T00:37:02.811Z,17.50
2023-01-26T00:39:34.727Z,18.03
2023-01-26T00:42:15.363Z,18.00
2023-01-26T00:44:44.283Z,17.17
2023-01-26T00:47:13.585Z,18.07
2023-01-26T00:49:42.763Z,18.77
2023-01-26T00:52:10.905Z,19.60
2023-01-26T00:54:38.564Z,18.43
2023-01-26T00:57:06.637Z,17.37
2023-01-26T00:59:35.094Z,17.37
2023-01-26T01:02:03.552Z,17.87
2023-01-26T01:04:31.961Z,17.80
2023-01-26T01:07:02.858Z,15.33
2023-01-26T01:09:30.807Z,16.40
2023-01-26T01:11:59.051Z,16.10
2023-01-26T01:14:28.693Z,16.30
2023-01-26T01:16:56.478Z,14.27
2023-01-26T01:19:24.565Z,15.53
2023-01-26T01:21:52.224Z,15.40
2023-01-26T01:24:21.560Z,14.03
2023-01-26T01:26:49.230Z,14.03
2023-01-26T01:29:16.987Z,14.43
2023-01-26T01:31:44.730Z,13.97
2023-01-26T01:34:12.673Z,13.60
2023-01-26T01:36:41.100Z,12.70
2023-01-26T01:39:08.962Z,13.27
2023-01-26T01:41:37.987Z,12.73
2023-01-26T01:44:18.529Z,13.57
2023-01-26T01:46:51.415Z,13.70
2023-01-26T01:49:24.204Z,12.47
2023-01-26T01:51:55.480Z,13.00
2023-01-26T01:54:30.105Z,12.40
2023-01-26T01:57:03.463Z,12.70
2023-01-26T01:59:33.695Z,10.67
2023-01-26T02:03:12.284Z,12.13
2023-01-26T02:05:48.764Z,10.73
2023-01-26T02:08:19.491Z,11.90
2023-01-26T02:10:50.820Z,11.73
2023-01-26T02:13:22.077Z,9.60
2023-01-26T02:15:51.057Z,9.90
2023-01-26T02:18:19.399Z,11.10
2023-01-26T02:20:50.734Z,11.30
2023-01-26T02:23:35.757Z,11.73
2023-01-26T02:26:14.065Z,10.90
2023-01-26T02:28:43.917Z,11.43
2023-01-26T02:31:12.956Z,10.73
2023-01-26T02:33:42.252Z,10.83
2023-01-26T02:36:19.464Z,12.30
2023-01-26T02:38:59.952Z,11.03
2023-01-26T02:41:47.778Z,11.97
2023-01-26T02:44:16.579Z,11.17
2023-01-26T02:46:44.444Z,11.47
2023-01-26T02:49:29.605Z,11.73
2023-01-26T02:51:57.574Z,11.97
2023-01-26T02:54:43.134Z,12.50
2023-01-26T02:57:13.054Z,12.30
2023-01-26T03:03:47.197Z,12.90
2023-01-26T03:06:16.453Z,12.50
2023-01-26T03:08:44.165Z,12.80
2023-01-26T03:11:13.544Z,12.40
2023-01-26T03:13:42.985Z,12.83
2023-01-26T03:16:11.875Z,13.40
2023-01-26T03:18:57.313Z,12.80
2023-01-26T03:21:43.188Z,12.80
2023-01-26T03:24:34.274Z,12.87
2023-01-26T03:27:23.359Z,12.17
2023-01-26T03:29:53.499Z,11.23
2023-01-26T03:32:22.396Z,11.83
2023-01-26T03:34:51.614Z,12.60
2023-01-26T03:37:22.060Z,12.73
2023-01-26T03:40:16.398Z,13.33
2023-01-26T03:43:02.920Z,12.80
2023-01-26T03:45:50.053Z,13.77
2023-01-26T03:48:37.010Z,12.07
2023-01-26T03:51:25.535Z,13.07
2023-01-26T03:54:10.808Z,12.40
2023-01-26T03:56:38.694Z,10.80
2023-01-26T03:59:15.183Z,10.03
2023-01-26T04:02:04.251Z,10.17
2023-01-26T04:04:50.557Z,10.53
2023-01-26T04:07:37.828Z,9.67
2023-01-26T04:10:06.812Z,9.37
2023-01-26T04:12:34.909Z,8.80
2023-01-26T04:15:31.116Z,9.40
2023-01-26T04:18:17.854Z,10.10
2023-01-26T04:21:03.232Z,9.67
2023-01-26T04:23:32.369Z,10.40
2023-01-26T04:26:00.532Z,9.37
2023-01-26T04:28:28.689Z,10.23
2023-01-26T04:30:56.797Z,9.37
2023-01-26T04:33:26.303Z,8.60
2023-01-26T04:35:54.070Z,8.77
2023-01-26T04:38:21.992Z,7.77
2023-01-26T04:40:54.354Z,7.43
2023-01-26T04:43:22.412Z,7.97
2023-01-26T04:45:59.531Z,7.20
2023-01-26T04:48:29.551Z,7.20
2023-01-26T04:50:58.016Z,7.07
2023-01-26T04:53:26.410Z,7.17
2023-01-26T04:55:54.664Z,7.43
2023-01-26T04:58:22.588Z,7.23
2023-01-26T05:00:55.575Z,6.80
2023-01-26T05:03:23.658Z,7.10
2023-01-26T05:05:54.769Z,7.20
2023-01-26T05:08:25.115Z,7.43
2023-01-26T05:10:52.784Z,8.07
2023-01-26T05:13:26.718Z,7.60
2023-01-26T05:16:14.069Z,8.23
2023-01-26T05:18:55.068Z,7.73
2023-01-26T05:21:36.776Z,7.50
2023-01-26T05:24:04.600Z,7.80
2023-01-26T05:27:12.427Z,7.00
2023-01-26T05:29:41.362Z,6.63
2023-01-26T05:32:09.166Z,6.87
2023-01-26T05:34:37.644Z,7.40
2023-01-26T05:37:07.988Z,7.90
2023-01-26T05:39:36.822Z,7.40
2023-01-26T05:42:06.519Z,7.00
2023-01-26T05:44:34.554Z,7.37
2023-01-26T05:47:07.308Z,8.07
2023-01-26T05:49:38.671Z,6.93
2023-01-26T05:52:12.129Z,7.60
2023-01-26T05:54:41.456Z,7.80
2023-01-26T05:57:10.030Z,8.20
2023-01-26T05:59:42.250Z,7.50
2023-01-26T06:02:13.022Z,7.50
2023-01-26T06:04:43.863Z,7.50
2023-01-26T06:07:13.879Z,7.17
2023-01-26T06:09:56.042Z,8.20
2023-01-26T06:12:46.525Z,7.87
2023-01-26T06:15:39.432Z,7.37
2023-01-26T06:18:07.418Z,7.10
2023-01-26T06:20:36.455Z,6.00
2023-01-26T06:23:12.820Z,6.97
2023-01-26T06:25:41.312Z,6.77
2023-01-26T06:28:09.850Z,6.90
2023-01-26T06:30:38.783Z,6.90
2023-01-26T06:33:11.945Z,7.43
2023-01-26T06:35:40.685Z,6.47
2023-01-26T06:38:15.679Z,5.90
2023-01-26T06:40:44.535Z,6.43
2023-01-26T06:43:13.323Z,6.03
2023-01-26T06:45:42.019Z,7.00
2023-01-26T06:48:10.205Z,7.53
2023-01-26T06:50:38.476Z,6.80
2023-01-26T06:53:30.546Z,8.00
2023-01-26T06:56:21.856Z,7.57
2023-01-26T06:58:59.928Z,7.63
2023-01-26T07:01:49.705Z,6.43
2023-01-26T07:04:18.568Z,7.23
2023-01-26T07:06:48.801Z,6.20
2023-01-26T07:09:18.550Z,6.77
2023-01-26T07:11:47.428Z,5.87
2023-01-26T07:14:15.620Z,5.63
2023-01-26T07:16:43.651Z,4.63
2023-01-26T07:19:11.655Z,4.97
2023-01-26T07:21:40.676Z,4.60
2023-01-26T07:24:10.633Z,4.43
2023-01-26T07:26:42.058Z,4.47
2023-01-26T07:29:10.367Z,5.00
2023-01-26T07:31:38.896Z,4.97
2023-01-26T07:34:06.805Z,6.93
2023-01-26T07:36:34.863Z,5.80
2023-01-26T07:39:03.018Z,5.80
2023-01-26T07:41:31.509Z,4.70
2023-01-26T07:44:02.352Z,5.03
2023-01-26T07:46:33.528Z,4.53
2023-01-26T07:49:02.666Z,4.80
2023-01-26T07:51:30.528Z,4.57
2023-01-26T07:53:59.021Z,4.80
2023-01-26T07:56:27.056Z,4.80
2023-01-26T07:58:55.859Z,4.70
2023-01-26T08:01:25.912Z,4.90
2023-01-26T08:03:54.622Z,4.17
2023-01-26T08:06:23.065Z,5.50
2023-01-26T08:08:53.574Z,5.17
2023-01-26T08:11:24.801Z,5.20
2023-01-26T08:13:53.349Z,4.83
2023-01-26T08:16:21.320Z,5.03
2023-01-26T08:18:50.723Z,5.50
2023-01-26T08:21:21.161Z,5.53
2023-01-26T08:23:52.759Z,6.00
2023-01-26T08:26:22.840Z,5.67
2023-01-26T08:28:50.707Z,6.33
2023-01-26T08:31:21.510Z,7.00
2023-01-26T08:33:52.550Z,5.97
2023-01-26T08:36:22.589Z,5.13
2023-01-26T08:38:52.576Z,4.67
2023-01-26T08:41:20.679Z,5.97
2023-01-26T08:43:48.928Z,5.20
2023-01-26T08:46:18.641Z,5.80
2023-01-26T08:48:46.558Z,6.20
2023-01-26T08:51:15.964Z,8.27
2023-01-26T08:53:43.841Z,8.17
2023-01-26T08:56:14.163Z,7.20
2023-01-26T08:58:42.168Z,7.43
2023-01-26T09:01:13.178Z,7.20
2023-01-26T09:03:41.002Z,7.60
2023-01-26T09:06:10.881Z,8.87
2023-01-26T09:08:39.962Z,8.30
2023-01-26T09:11:09.076Z,9.37
2023-01-26T09:13:39.390Z,8.20
2023-01-26T09:16:09.459Z,7.53
2023-01-26T09:18:37.975Z,8.20
2023-01-26T09:21:07.164Z,8.23
2023-01-26T09:23:36.368Z,8.10
2023-01-26T09:26:05.480Z,7.93
2023-01-26T09:28:33.865Z,7.67
2023-01-26T09:31:05.868Z,8.60
2023-01-26T09:33:34.016Z,8.07
2023-01-26T09:36:05.146Z,7.57
2023-01-26T09:38:33.194Z,8.30
2023-01-26T09:41:08.791Z,8.03
2023-01-26T09:43:41.518Z,8.13
2023-01-26T09:46:22.304Z,8.27
2023-01-26T09:48:58.891Z,9.20
2023-01-26T09:51:33.610Z,9.20
2023-01-26T09:54:06.638Z,8.60
2023-01-26T09:56:36.099Z,8.70
2023-01-26T09:59:16.316Z,9.30
2023-01-26T10:01:50.636Z,9.20
2023-01-26T10:04:32.625Z,9.73
2023-01-26T10:07:03.528Z,9.00
2023-01-26T10:09:49.955Z,9.20
2023-01-26T10:12:23.700Z,8.40
2023-01-26T10:14:57.650Z,9.80
2023-01-26T10:17:29.625Z,9.87
2023-01-26T10:20:04.634Z,9.97
2023-01-26T10:22:43.300Z,11.87
2023-01-26T10:25:16.543Z,9.90
2023-01-26T10:27:46.863Z,9.10
2023-01-26T10:30:16.285Z,8.97
2023-01-26T10:32:46.863Z,8.40
2023-01-26T10:35:18.620Z,7.60
2023-01-26T10:37:47.208Z,8.10
2023-01-26T10:40:15.624Z,8.77
2023-01-26T10:42:55.975Z,8.20
2023-01-26T10:45:30.229Z,8.73
2023-01-26T10:48:18.494Z,9.10
2023-01-26T10:50:46.392Z,9.30
2023-01-26T10:53:20.025Z,9.77
2023-01-26T10:56:01.409Z,9.17
2023-01-26T10:58:44.943Z,9.03
2023-01-26T11:01:15.603Z,8.57
2023-01-26T11:03:44.020Z,9.80
2023-01-26T11:06:16.398Z,9.50
2023-01-26T11:08:44.995Z,9.60
2023-01-26T11:11:27.125Z,8.30
2023-01-26T11:14:16.501Z,9.47
2023-01-26T11:16:48.665Z,9.87
2023-01-26T11:19:28.953Z,9.67
2023-01-26T11:22:00.531Z,9.73
2023-01-26T11:24:35.586Z,9.67
2023-01-26T11:27:47.474Z,9.97
2023-01-26T11:31:06.250Z,8.90
2023-01-26T11:33:42.954Z,9.10
2023-01-26T11:36:18.462Z,9.37
2023-01-26T11:38:53.721Z,7.87
2023-01-26T11:41:36.044Z,9.80
2023-01-26T11:44:32.062Z,8.57
2023-01-26T11:47:12.015Z,8.83
2023-01-26T11:49:58.471Z,16.33
2023-01-26T11:52:37.052Z,12.30
2023-01-26T11:55:30.647Z,11.40
2023-01-26T11:58:13.783Z,8.97
2023-01-26T12:00:43.882Z,9.83
2023-01-26T12:03:20.634Z,10.13
2023-01-26T12:05:55.223Z,9.27
2023-01-26T12:08:26.983Z,10.70
2023-01-26T12:11:22.440Z,11.27
2023-01-26T12:14:08.179Z,12.50
2023-01-26T12:16:45.017Z,12.07
2023-01-26T12:19:20.275Z,12.07
2023-01-26T12:21:52.127Z,12.47
2023-01-26T12:24:54.038Z,12.47
2023-01-26T12:27:22.536Z,12.10
2023-01-26T12:29:58.164Z,13.53
2023-01-26T12:32:25.956Z,13.33
2023-01-26T12:34:53.999Z,14.27
2023-01-26T12:37:39.593Z,12.97
2023-01-26T12:40:19.980Z,12.57
2023-01-26T12:42:53.525Z,12.57
2023-01-26T12:45:26.325Z,13.93
2023-01-26T12:47:57.779Z,14.10
2023-01-26T12:50:30.790Z,13.83
2023-01-26T12:53:07.547Z,72.80
2023-01-26T12:55:42.696Z,19.63
2023-01-26T12:58:14.856Z,13.40
2023-01-26T13:00:53.635Z,13.13
2023-01-26T13:03:25.977Z,13.40
2023-01-26T13:05:59.332Z,12.83
2023-01-26T13:08:53.835Z,13.43
2023-01-26T13:11:43.599Z,12.73
2023-01-26T13:14:56.480Z,13.70
2023-01-26T13:17:53.052Z,13.70
2023-01-26T13:20:25.984Z,13.57
2023-01-26T13:22:55.089Z,14.80
2023-01-26T13:25:34.498Z,13.70
2023-01-26T13:28:03.454Z,13.37
2023-01-26T13:30:49.546Z,13.20
2023-01-26T13:33:22.796Z,14.80
2023-01-26T13:35:52.588Z,14.70
2023-01-26T13:38:29.322Z,15.53
2023-01-26T13:40:59.082Z,15.40
2023-01-26T13:43:36.426Z,14.03
2023-01-26T13:46:16.094Z,14.20
2023-01-26T13:48:46.976Z,13.13
2023-01-26T13:51:18.602Z,12.93
2023-01-26T13:53:51.392Z,14.03
2023-01-26T13:56:30.519Z,13.00
2023-01-26T13:59:10.895Z,14.43
2023-01-26T14:01:43.912Z,14.43
2023-01-26T14:04:16.106Z,14.17
2023-01-26T14:06:48.329Z,13.77
2023-01-26T14:09:16.563Z,15.33
2023-01-26T14:11:53.723Z,14.43
2023-01-26T14:14:27.193Z,12.67
2023-01-26T14:16:55.174Z,13.93
2023-01-26T14:19:24.406Z,13.47
2023-01-26T14:21:54.646Z,12.00
2023-01-26T14:27:37.114Z,13.00
2023-01-26T14:30:22.885Z,12.80
2023-01-26T14:32:57.526Z,11.80
2023-01-26T14:35:26.649Z,12.20
2023-01-26T14:38:06.706Z,13.87
2023-01-26T14:40:35.418Z,12.20
2023-01-26T14:43:05.709Z,13.63
2023-01-26T14:45:34.877Z,13.60
2023-01-26T14:48:07.083Z,13.63
2023-01-26T14:50:36.614Z,12.90
2023-01-26T14:53:06.660Z,12.63
2023-01-26T14:55:37.201Z,13.27
2023-01-26T14:58:16.753Z,12.80
2023-01-26T15:00:49.917Z,12.87
2023-01-26T15:03:25.011Z,14.60
2023-01-26T15:06:06.778Z,13.07
2023-01-26T15:08:36.429Z,13.27
2023-01-26T15:11:22.666Z,14.40
2023-01-26T15:13:55.564Z,13.20
2023-01-26T15:16:25.243Z,11.90
2023-01-26T15:18:59.727Z,11.60
2023-01-26T15:21:34.133Z,12.40
2023-01-26T15:24:02.395Z,11.10
2023-01-26T15:26:31.647Z,12.10
2023-01-26T15:29:04.200Z,10.97
2023-01-26T15:31:34.709Z,11.87
2023-01-26T15:34:08.425Z,11.37
2023-01-26T15:36:48.706Z,10.60
2023-01-26T15:39:18.838Z,9.60
2023-01-26T15:41:59.470Z,10.60
2023-01-26T15:44:29.254Z,10.90
2023-01-26T15:46:59.218Z,12.60
2023-01-26T15:49:27.296Z,12.07
2023-01-26T15:51:55.199Z,11.83
2023-01-26T15:54:22.919Z,12.40
2023-01-26T15:56:50.899Z,13.53
2023-01-26T15:59:19.174Z,13.13
2023-01-26T16:01:48.678Z,12.67
2023-01-26T16:04:16.670Z,10.83
2023-01-26T16:06:44.861Z,11.43
2023-01-26T16:09:12.621Z,12.00
2023-01-26T16:11:48.438Z,11.00
2023-01-26T16:14:17.389Z,12.40
2023-01-26T16:16:45.274Z,12.07
2023-01-26T16:19:34.400Z,12.27
2023-01-26T16:22:02.638Z,15.67
2023-01-26T16:24:30.411Z,15.57
2023-01-26T16:26:58.299Z,13.03
2023-01-26T16:29:26.486Z,12.77
2023-01-26T16:31:54.381Z,12.93
2023-01-26T16:34:23.621Z,13.20
2023-01-26T16:36:51.823Z,13.57
2023-01-26T16:39:19.589Z,13.70
2023-01-26T16:41:47.366Z,14.87
2023-01-26T16:44:17.618Z,15.17
2023-01-26T16:46:45.581Z,15.77
2023-01-26T16:49:15.950Z,16.93
2023-01-26T16:51:45.499Z,15.43
2023-01-26T16:54:14.024Z,13.90
2023-01-26T16:56:42.363Z,15.43
2023-01-26T16:59:10.227Z,14.33
2023-01-26T17:01:38.623Z,15.10
2023-01-26T17:04:06.635Z,14.27
2023-01-26T17:06:34.965Z,14.40
2023-01-26T17:09:04.875Z,15.37
2023-01-26T17:11:32.728Z,16.10
2023-01-26T17:14:00.503Z,14.67
2023-01-26T17:16:31.986Z,14.00
2023-01-26T17:18:59.987Z,13.00
2023-01-26T17:21:28.254Z,14.43
2023-01-26T17:23:58.679Z,15.73
2023-01-26T17:26:27.853Z,14.53
2023-01-26T17:28:56.755Z,14.03
2023-01-26T17:31:25.660Z,13.90
2023-01-26T17:33:53.938Z,14.03
2023-01-26T17:36:22.102Z,15.03
2023-01-26T17:38:50.170Z,15.73
2023-01-26T17:41:19.150Z,15.57
2023-01-26T17:43:48.790Z,15.17
2023-01-26T17:46:18.857Z,15.27
2023-01-26T17:48:47.431Z,16.67
2023-01-26T17:51:18.312Z,15.07
2023-01-26T17:53:47.632Z,15.50
2023-01-26T17:56:18.631Z,14.37
2023-01-26T17:58:50.580Z,16.40
2023-01-26T18:01:20.015Z,15.73
2023-01-26T18:03:47.749Z,15.27
2023-01-26T18:06:16.183Z,15.37
2023-01-26T18:08:44.166Z,14.07
2023-01-26T18:11:14.451Z,15.67
2023-01-26T18:13:43.456Z,15.33
2023-01-26T18:16:17.073Z,15.07
2023-01-26T18:18:44.844Z,16.33
2023-01-26T18:21:14.948Z,15.10
2023-01-26T18:23:45.931Z,14.07
2023-01-26T18:26:14.458Z,18.20
2023-01-26T18:28:42.903Z,17.27
2023-01-26T18:31:15.621Z,16.47
2023-01-26T18:33:44.190Z,17.87
2023-01-26T18:36:13.567Z,16.93
2023-01-26T18:38:42.046Z,17.00
2023-01-26T18:41:14.068Z,17.77
2023-01-26T18:43:43.593Z,17.40
2023-01-26T18:46:12.930Z,18.40
2023-01-26T18:48:41.130Z,19.10
2023-01-26T18:51:09.659Z,18.87
2023-01-26T18:53:38.924Z,18.23
2023-01-26T18:56:08.776Z,16.93
2023-01-26T18:58:37.770Z,16.83
2023-01-26T19:01:09.353Z,16.87
2023-01-26T19:03:39.896Z,16.47
2023-01-26T19:06:08.065Z,16.27
2023-01-26T19:08:36.207Z,16.00
2023-01-26T19:11:07.983Z,16.73
2023-01-26T19:13:36.268Z,15.53
2023-01-26T19:16:04.384Z,15.87
2023-01-26T19:18:32.171Z,15.83
2023-01-26T19:21:04.033Z,15.60
2023-01-26T19:23:32.934Z,17.63
2023-01-26T19:26:01.088Z,17.10
2023-01-26T19:28:28.853Z,15.73
2023-01-26T19:31:03.541Z,16.33
2023-01-26T19:33:31.702Z,14.73
2023-01-26T19:36:03.003Z,15.60
2023-01-26T19:38:32.641Z,15.70
2023-01-26T19:41:02.472Z,16.67
2023-01-26T19:43:30.680Z,17.00
2023-01-26T19:45:58.622Z,16.80
2023-01-26T19:48:29.168Z,16.40
2023-01-26T19:51:04.536Z,17.17
2023-01-26T19:53:33.900Z,15.97
2023-01-26T19:56:06.463Z,16.23
2023-01-26T19:58:34.261Z,16.50
2023-01-26T20:01:02.474Z,16.73
2023-01-26T20:03:30.431Z,16.77
2023-01-26T20:05:58.412Z,17.43
2023-01-26T20:08:29.468Z,17.60
2023-01-26T20:11:03.820Z,18.20
2023-01-26T20:13:32.505Z,18.10
2023-01-26T20:16:00.752Z,18.50
2023-01-26T20:18:29.792Z,18.33
2023-01-26T20:21:00.689Z,18.43
2023-01-26T20:23:30.697Z,18.33
2023-01-26T20:26:03.171Z,18.90
2023-01-26T20:28:31.340Z,17.57
2023-01-26T20:31:05.657Z,18.17
2023-01-26T20:33:33.688Z,16.77
2023-01-26T20:36:02.369Z,16.70
2023-01-26T20:38:33.055Z,17.27
2023-01-26T20:41:00.862Z,16.97
2023-01-26T20:43:28.741Z,16.43
2023-01-26T20:45:56.628Z,16.43
2023-01-26T20:48:24.397Z,16.70
2023-01-26T20:50:53.139Z,17.80
2023-01-26T20:53:22.295Z,15.77
2023-01-26T20:55:58.357Z,15.80
2023-01-26T20:58:26.444Z,15.83
2023-01-26T21:00:54.143Z,19.77
2023-01-26T21:03:21.834Z,20.03
2023-01-26T21:05:50.659Z,19.63
2023-01-26T21:08:18.455Z,19.13
2023-01-26T21:10:47.200Z,18.47
2023-01-26T21:13:16.780Z,17.70
2023-01-26T21:15:44.633Z,18.63
2023-01-26T21:18:12.875Z,18.37
2023-01-26T21:20:40.810Z,18.93
2023-01-26T21:23:09.215Z,19.60
2023-01-26T21:25:37.141Z,20.77
2023-01-26T21:28:05.327Z,20.37
2023-01-26T21:30:36.179Z,21.37
2023-01-26T21:33:04.470Z,20.87
2023-01-26T21:35:33.922Z,20.40
2023-01-26T21:38:01.719Z,19.97
2023-01-26T21:40:29.386Z,20.93
2023-01-26T21:42:57.120Z,20.97
2023-01-26T21:45:42.304Z,20.27
2023-01-26T21:48:31.051Z,19.60
2023-01-26T21:51:13.761Z,19.67
2023-01-26T21:53:41.753Z,19.83
2023-01-26T21:56:10.005Z,20.17
2023-01-26T21:59:02.288Z,20.57
2023-01-26T22:01:32.570Z,19.87
2023-01-26T22:04:03.526Z,20.43
2023-01-26T22:06:31.912Z,20.20
2023-01-26T22:08:59.548Z,20.87
2023-01-26T22:11:28.513Z,19.43
2023-01-26T22:13:56.812Z,19.37
2023-01-26T22:16:24.594Z,18.73
2023-01-26T22:18:53.088Z,19.87
2023-01-26T22:21:22.826Z,19.33
2023-01-26T22:23:51.702Z,19.47
2023-01-26T22:26:22.218Z,19.03
2023-01-26T22:28:54.528Z,18.40
2023-01-26T22:31:26.068Z,20.40
2023-01-26T22:33:54.420Z,19.50
2023-01-26T22:36:24.792Z,17.53
2023-01-26T22:38:53.664Z,18.47
2023-01-26T22:41:24.824Z,17.97
2023-01-26T22:43:55.124Z,18.43
2023-01-26T22:46:24.306Z,17.93
2023-01-26T22:48:53.277Z,17.07
2023-01-26T22:51:24.735Z,18.47
2023-01-26T22:53:54.683Z,17.73
2023-01-26T22:56:23.133Z,19.30
2023-01-26T22:58:58.096Z,19.47
2023-01-26T23:01:27.442Z,19.47
2023-01-26T23:03:56.341Z,20.57
2023-01-26T23:06:26.236Z,19.37
2023-01-26T23:08:54.707Z,21.03
2023-01-26T23:11:24.214Z,20.27
2023-01-26T23:13:54.514Z,21.37
2023-01-26T23:16:23.576Z,20.77
2023-01-26T23:18:52.273Z,21.30
2023-01-26T23:21:21.014Z,21.83
2023-01-26T23:23:50.887Z,21.33
2023-01-26T23:26:18.938Z,19.93
2023-01-26T23:28:46.845Z,21.77
2023-01-26T23:31:16.458Z,22.47
2023-01-26T23:33:44.356Z,22.23
2023-01-26T23:36:13.995Z,21.27
2023-01-26T23:38:42.371Z,19.07
2023-01-26T23:41:11.946Z,20.70
2023-01-26T23:43:40.161Z,21.10
2023-01-26T23:46:08.859Z,22.13
2023-01-26T23:48:37.462Z,20.87
2023-01-26T23:51:08.458Z,20.13
2023-01-26T23:53:36.671Z,22.37
2023-01-26T23:56:07.996Z,19.53
2023-01-26T23:58:37.337Z,21.13
